createdAt,value
2022-09-20T00:01:21.274Z,12.60
2022-09-20T00:03:50.315Z,12.60
2022-09-20T00:06:19.886Z,12.60
2022-09-20T00:08:47.312Z,12.60
2022-09-20T00:11:19.845Z,12.50
2022-09-20T00:13:49.460Z,12.40
2022-09-20T00:16:20.546Z,12.50
2022-09-20T00:18:55.436Z,12.50
2022-09-20T00:21:25.252Z,12.40
2022-09-20T00:23:53.182Z,12.30
2022-09-20T00:26:20.972Z,12.30
2022-09-20T00:28:48.676Z,12.20
2022-09-20T00:31:15.984Z,12.30
2022-09-20T00:34:01.715Z,12.20
2022-09-20T00:36:29.129Z,12.20
2022-09-20T00:39:00.802Z,12.20
2022-09-20T00:41:28.232Z,12.20
2022-09-20T00:43:55.769Z,12.10
2022-09-20T00:46:22.595Z,12.10
2022-09-20T00:48:55.793Z,12.20
2022-09-20T00:51:31.902Z,12.40
2022-09-20T00:54:01.928Z,12.50
2022-09-20T00:56:34.099Z,12.60
2022-09-20T00:59:07.193Z,12.70
2022-09-20T01:01:34.219Z,12.80
2022-09-20T01:04:01.447Z,12.90
2022-09-20T01:06:29.198Z,13.00
2022-09-20T01:09:02.524Z,12.90
2022-09-20T01:11:31.025Z,12.60
2022-09-20T01:13:58.380Z,12.80
2022-09-20T01:16:26.963Z,12.90
2022-09-20T01:18:57.373Z,12.70
2022-09-20T01:21:26.313Z,12.40
2022-09-20T01:24:09.648Z,12.00
2022-09-20T01:26:49.581Z,12.30
2022-09-20T01:29:28.662Z,12.20
2022-09-20T01:32:00.637Z,12.40
2022-09-20T01:34:44.217Z,12.20
2022-09-20T01:37:42.978Z,12.00
2022-09-20T01:40:21.561Z,12.10
2022-09-20T01:43:13.597Z,12.10
2022-09-20T01:45:48.198Z,12.20
2022-09-20T01:48:27.343Z,12.20
2022-09-20T01:51:30.035Z,12.40
2022-09-20T01:54:44.513Z,12.50
2022-09-20T01:57:30.809Z,12.40
2022-09-20T02:00:04.344Z,12.00
2022-09-20T02:02:40.581Z,12.00
2022-09-20T02:05:33.313Z,12.10
2022-09-20T02:08:35.455Z,12.00
2022-09-20T02:11:05.821Z,12.20
2022-09-20T02:13:41.312Z,12.30
2022-09-20T02:16:38.833Z,12.10
2022-09-20T02:19:30.519Z,12.00
2022-09-20T02:22:31.766Z,11.80
2022-09-20T02:25:22.902Z,11.60
2022-09-20T02:28:13.686Z,11.40
2022-09-20T02:30:51.212Z,11.40
2022-09-20T02:33:36.056Z,11.30
2022-09-20T02:36:03.020Z,11.30
2022-09-20T02:39:10.722Z,11.60
2022-09-20T02:41:46.299Z,11.70
2022-09-20T02:44:33.492Z,11.80
2022-09-20T02:47:13.007Z,11.50
2022-09-20T02:50:05.397Z,11.40
2022-09-20T02:53:06.843Z,11.30
2022-09-20T02:55:55.627Z,11.40
2022-09-20T02:58:47.203Z,11.60
2022-09-20T03:01:34.245Z,11.60
2022-09-20T03:04:39.737Z,11.60
2022-09-20T03:07:15.423Z,11.50
2022-09-20T03:10:15.806Z,11.50
2022-09-20T03:13:03.469Z,11.50
2022-09-20T03:16:07.351Z,11.60
2022-09-20T03:18:38.696Z,11.80
2022-09-20T03:21:17.336Z,11.90
2022-09-20T03:24:25.644Z,12.20
2022-09-20T03:27:05.756Z,12.50
2022-09-20T03:29:48.074Z,12.60
2022-09-20T03:32:34.384Z,12.50
2022-09-20T03:35:20.682Z,12.50
2022-09-20T03:38:02.883Z,12.30
2022-09-20T03:40:47.382Z,12.20
2022-09-20T03:44:04.890Z,12.10
2022-09-20T03:46:40.633Z,12.10
2022-09-20T03:49:32.265Z,12.00
2022-09-20T03:52:23.545Z,11.90
2022-09-20T03:55:33.838Z,11.80
2022-09-20T03:58:43.206Z,11.80
2022-09-20T04:01:24.893Z,12.00
2022-09-20T04:04:04.714Z,12.00
2022-09-20T04:06:40.188Z,11.80
2022-09-20T04:09:38.806Z,12.20
2022-09-20T04:12:30.812Z,12.10
2022-09-20T04:15:05.956Z,12.20
2022-09-20T04:18:03.127Z,12.10
2022-09-20T04:20:48.060Z,12.10
2022-09-20T04:23:51.957Z,12.20
2022-09-20T04:26:27.994Z,12.20
2022-09-20T04:29:14.428Z,12.50
2022-09-20T04:31:54.276Z,12.70
2022-09-20T04:34:51.503Z,12.80
2022-09-20T04:37:33.053Z,12.90
2022-09-20T04:40:17.180Z,12.80
2022-09-20T04:43:09.095Z,13.00
2022-09-20T04:46:13.859Z,12.90
2022-09-20T04:48:52.528Z,12.70
2022-09-20T04:51:43.830Z,12.60
2022-09-20T04:54:28.986Z,12.60
2022-09-20T04:57:22.162Z,12.60
2022-09-20T05:00:13.042Z,12.80
2022-09-20T05:02:42.688Z,12.90
2022-09-20T05:05:49.391Z,12.90
2022-09-20T05:08:31.318Z,13.00
2022-09-20T05:11:21.311Z,13.30
2022-09-20T05:14:17.070Z,13.40
2022-09-20T05:17:17.441Z,13.30
2022-09-20T05:20:06.070Z,13.20
2022-09-20T05:23:07.910Z,13.30
2022-09-20T05:26:12.614Z,13.20
2022-09-20T05:29:02.477Z,13.20
2022-09-20T05:31:48.068Z,13.10
2022-09-20T05:34:42.929Z,13.10
2022-09-20T05:37:16.409Z,13.20
2022-09-20T05:40:04.246Z,13.10
2022-09-20T05:42:53.987Z,13.10
2022-09-20T05:45:23.946Z,13.20
2022-09-20T05:47:55.726Z,13.20
2022-09-20T05:50:53.842Z,13.20
2022-09-20T05:53:34.966Z,13.10
2022-09-20T05:56:32.910Z,12.90
2022-09-20T05:59:08.916Z,13.00
2022-09-20T06:01:49.227Z,12.90
2022-09-20T06:04:21.460Z,12.90
2022-09-20T06:06:54.342Z,12.90
2022-09-20T06:09:42.116Z,12.90
2022-09-20T06:12:15.246Z,12.90
2022-09-20T06:15:08.298Z,12.70
2022-09-20T06:17:55.520Z,12.70
2022-09-20T06:20:51.776Z,12.80
2022-09-20T06:23:19.543Z,12.80
2022-09-20T06:25:51.138Z,12.80
2022-09-20T06:28:21.548Z,12.90
2022-09-20T06:30:50.920Z,12.90
2022-09-20T06:33:19.108Z,12.90
2022-09-20T06:35:58.865Z,13.00
2022-09-20T06:38:53.379Z,13.10
2022-09-20T06:41:28.229Z,13.20
2022-09-20T06:43:58.660Z,13.30
2022-09-20T06:46:34.259Z,13.40
2022-09-20T06:49:01.210Z,13.40
2022-09-20T06:51:34.063Z,13.50
2022-09-20T06:54:01.163Z,13.70
2022-09-20T06:56:36.875Z,13.80
2022-09-20T06:59:08.630Z,13.90
2022-09-20T07:01:35.823Z,13.90
2022-09-20T07:04:03.683Z,14.00
2022-09-20T07:06:30.479Z,14.10
2022-09-20T07:08:57.368Z,14.30
2022-09-20T07:11:24.595Z,14.40
2022-09-20T07:13:53.876Z,14.70
2022-09-20T07:16:22.026Z,14.80
2022-09-20T07:18:49.422Z,14.90
2022-09-20T07:21:18.235Z,15.00
2022-09-20T07:23:45.945Z,15.10
2022-09-20T07:26:20.561Z,15.30
2022-09-20T07:28:49.486Z,15.20
2022-09-20T07:31:19.797Z,15.10
2022-09-20T07:33:47.132Z,15.30
2022-09-20T07:36:14.413Z,15.40
2022-09-20T07:38:42.148Z,15.60
2022-09-20T07:41:10.247Z,15.60
2022-09-20T07:43:37.573Z,15.90
2022-09-20T07:46:04.910Z,16.00
2022-09-20T07:48:34.651Z,16.20
2022-09-20T07:51:08.735Z,16.20
2022-09-20T07:53:36.502Z,16.60
2022-09-20T07:56:14.912Z,16.70
2022-09-20T07:58:43.122Z,17.10
2022-09-20T08:01:13.284Z,17.20
2022-09-20T08:03:40.565Z,17.30
2022-09-20T08:06:10.033Z,17.40
2022-09-20T08:08:39.055Z,17.60
2022-09-20T08:11:08.743Z,17.90
2022-09-20T08:14:07.730Z,18.10
2022-09-20T08:16:24.131Z,18.00
2022-09-20T08:18:55.752Z,18.30
2022-09-20T08:21:23.156Z,18.50
2022-09-20T08:23:50.533Z,18.80
2022-09-20T08:26:23.541Z,18.80
2022-09-20T08:28:55.969Z,19.00
2022-09-20T08:31:25.901Z,19.40
2022-09-20T08:33:54.380Z,19.40
2022-09-20T08:36:24.592Z,19.80
2022-09-20T08:41:52.890Z,20.00
2022-09-20T08:44:35.127Z,19.90
2022-09-20T08:47:22.609Z,20.00
2022-09-20T08:49:56.680Z,20.20
2022-09-20T08:52:37.582Z,20.10
2022-09-20T08:55:16.799Z,20.10
2022-09-20T08:57:49.038Z,20.00
2022-09-20T09:00:19.330Z,20.00
2022-09-20T09:02:46.839Z,20.00
2022-09-20T09:05:31.921Z,20.00
2022-09-20T09:08:00.908Z,20.20
2022-09-20T09:10:45.110Z,20.60
2022-09-20T09:13:29.153Z,21.00
2022-09-20T09:16:00.184Z,21.40
2022-09-20T09:18:36.506Z,21.50
2022-09-20T09:21:05.072Z,21.70
2022-09-20T09:23:49.388Z,21.70
2022-09-20T09:26:24.992Z,21.50
2022-09-20T09:29:16.439Z,21.60
2022-09-20T09:31:45.288Z,21.60
2022-09-20T09:34:30.591Z,21.60
2022-09-20T09:36:58.920Z,21.60
2022-09-20T09:39:28.821Z,21.70
2022-09-20T09:41:56.254Z,21.40
2022-09-20T09:44:35.617Z,21.10
2022-09-20T09:47:02.394Z,21.30
2022-09-20T09:49:36.222Z,21.60
2022-09-20T09:52:15.051Z,22.00
2022-09-20T09:54:50.967Z,21.90
2022-09-20T09:57:23.685Z,21.70
2022-09-20T10:00:08.057Z,21.30
2022-09-20T10:03:19.707Z,21.40
2022-09-20T10:06:10.725Z,21.10
2022-09-20T10:09:10.197Z,20.70
2022-09-20T10:11:40.485Z,20.40
2022-09-20T10:14:29.733Z,20.20
2022-09-20T10:16:59.925Z,20.20
2022-09-20T10:19:40.566Z,20.50
2022-09-20T10:22:31.491Z,20.80
2022-09-20T10:25:35.798Z,21.00
2022-09-20T10:28:26.976Z,21.10
2022-09-20T10:31:25.950Z,20.60
2022-09-20T10:34:41.451Z,20.40
2022-09-20T10:37:25.522Z,20.50
2022-09-20T10:40:20.296Z,20.50
2022-09-20T10:43:17.036Z,20.40
2022-09-20T10:49:18.267Z,20.40
2022-09-20T10:51:58.213Z,20.50
2022-09-20T10:54:43.355Z,20.60
2022-09-20T10:57:26.296Z,20.50
2022-09-20T11:00:19.215Z,20.20
2022-09-20T11:03:10.776Z,20.20
2022-09-20T11:05:57.958Z,20.00
2022-09-20T11:08:30.047Z,19.80
2022-09-20T11:11:08.737Z,19.80
2022-09-20T11:13:52.473Z,19.70
2022-09-20T11:16:23.286Z,19.70
2022-09-20T11:19:06.028Z,19.80
2022-09-20T11:21:42.753Z,19.90
2022-09-20T11:24:45.180Z,20.10
2022-09-20T11:27:23.005Z,20.20
2022-09-20T11:29:59.013Z,20.40
2022-09-20T11:32:37.774Z,20.60
2022-09-20T11:35:30.573Z,20.90
2022-09-20T11:38:26.083Z,20.70
2022-09-20T11:41:01.188Z,20.60
2022-09-20T11:43:30.831Z,20.50
2022-09-20T11:46:03.499Z,20.60
2022-09-20T11:48:40.591Z,20.80
2022-09-20T11:51:10.217Z,20.70
2022-09-20T11:54:01.719Z,21.00
2022-09-20T11:56:34.565Z,21.00
2022-09-20T11:59:07.200Z,21.00
2022-09-20T12:01:39.689Z,21.10
2022-09-20T12:04:32.471Z,20.90
2022-09-20T12:07:09.667Z,21.20
2022-09-20T12:09:42.364Z,21.50
2022-09-20T12:12:36.619Z,21.70
2022-09-20T12:15:07.754Z,21.70
2022-09-20T12:17:46.800Z,21.70
2022-09-20T12:20:32.717Z,21.50
2022-09-20T12:23:37.218Z,21.40
2022-09-20T12:26:20.832Z,21.40
2022-09-20T12:29:09.609Z,21.20
2022-09-20T12:31:37.991Z,21.20
2022-09-20T12:34:25.437Z,21.00
2022-09-20T12:36:54.973Z,20.90
2022-09-20T12:39:30.466Z,21.00
2022-09-20T12:42:06.477Z,21.00
2022-09-20T12:44:40.953Z,20.50
2022-09-20T12:47:10.868Z,20.50
2022-09-20T12:50:05.335Z,20.50
2022-09-20T12:52:53.862Z,20.50
2022-09-20T12:55:33.670Z,20.50
2022-09-20T12:58:06.514Z,20.40
2022-09-20T13:00:46.494Z,20.30
2022-09-20T13:03:34.962Z,20.20
2022-09-20T13:06:14.978Z,20.30
2022-09-20T13:09:00.056Z,20.40
2022-09-20T13:11:29.844Z,20.50
2022-09-20T13:14:22.662Z,20.40
2022-09-20T13:17:31.013Z,20.40
2022-09-20T13:19:59.013Z,20.40
2022-09-20T13:22:29.937Z,20.20
2022-09-20T13:25:00.043Z,20.00
2022-09-20T13:27:32.650Z,19.80
2022-09-20T13:30:21.532Z,19.70
2022-09-20T13:32:50.288Z,19.30
2022-09-20T13:35:24.206Z,19.00
2022-09-20T13:37:55.620Z,19.00
2022-09-20T13:40:42.408Z,19.00
2022-09-20T13:43:23.755Z,19.00
2022-09-20T13:45:57.617Z,18.80
2022-09-20T13:48:28.999Z,18.90
2022-09-20T13:50:58.585Z,18.90
2022-09-20T13:53:41.110Z,18.70
2022-09-20T13:56:35.123Z,18.60
2022-09-20T13:59:05.409Z,18.60
2022-09-20T14:01:35.276Z,18.80
2022-09-20T14:04:07.322Z,18.70
2022-09-20T14:06:35.739Z,18.70
2022-09-20T14:09:10.763Z,18.70
2022-09-20T14:11:39.334Z,18.70
2022-09-20T14:14:08.072Z,18.60
2022-09-20T14:16:39.849Z,18.70
2022-09-20T14:19:08.318Z,18.70
2022-09-20T14:21:36.878Z,18.80
2022-09-20T14:24:52.919Z,18.80
2022-09-20T14:27:22.871Z,18.70
2022-09-20T14:29:54.686Z,18.80
2022-09-20T14:32:21.745Z,18.80
2022-09-20T14:35:00.659Z,18.90
2022-09-20T14:37:42.402Z,19.00
2022-09-20T14:40:45.510Z,19.10
2022-09-20T14:43:31.464Z,19.10
2022-09-20T14:46:01.777Z,19.30
2022-09-20T14:48:37.602Z,19.30
2022-09-20T14:51:18.915Z,19.50
2022-09-20T14:53:48.469Z,19.50
2022-09-20T14:56:17.234Z,19.60
2022-09-20T14:59:03.765Z,19.60
2022-09-20T15:01:30.581Z,19.90
2022-09-20T15:03:58.481Z,20.20
2022-09-20T15:06:26.568Z,20.20
2022-09-20T15:08:53.456Z,20.40
2022-09-20T15:11:20.788Z,20.50
2022-09-20T15:13:47.943Z,20.70
2022-09-20T15:16:17.776Z,21.10
2022-09-20T15:18:45.209Z,21.20
2022-09-20T15:21:12.855Z,21.40
2022-09-20T15:23:44.523Z,21.60
2022-09-20T15:26:14.186Z,21.60
2022-09-20T15:28:41.481Z,21.50
2022-09-20T15:31:10.376Z,21.70
2022-09-20T15:33:37.426Z,21.70
2022-09-20T15:36:04.918Z,21.80
2022-09-20T15:38:32.005Z,21.80
2022-09-20T15:41:03.547Z,21.70
2022-09-20T15:43:31.038Z,21.90
2022-09-20T15:46:00.743Z,22.00
2022-09-20T15:48:30.191Z,21.90
2022-09-20T15:51:02.783Z,21.90
2022-09-20T15:53:31.963Z,21.80
2022-09-20T15:56:01.377Z,21.70
2022-09-20T15:58:36.265Z,21.60
2022-09-20T16:01:08.566Z,21.30
2022-09-20T16:03:38.203Z,21.50
2022-09-20T16:06:07.590Z,21.40
2022-09-20T16:08:36.783Z,21.30
2022-09-20T16:11:04.729Z,21.20
2022-09-20T16:13:32.255Z,21.00
2022-09-20T16:16:01.108Z,20.90
2022-09-20T16:18:47.777Z,21.00
2022-09-20T16:21:21.265Z,20.80
2022-09-20T16:23:51.258Z,20.70
2022-09-20T16:26:21.693Z,20.40
2022-09-20T16:28:49.410Z,20.50
2022-09-20T16:31:40.109Z,20.30
2022-09-20T16:34:07.222Z,20.20
2022-09-20T16:36:34.791Z,20.10
2022-09-20T16:39:01.599Z,20.00
2022-09-20T16:41:29.297Z,19.80
2022-09-20T16:43:56.548Z,19.80
2022-09-20T16:46:27.307Z,19.70
2022-09-20T16:48:59.506Z,19.60
2022-09-20T16:51:32.348Z,19.60
2022-09-20T16:54:02.087Z,19.60
2022-09-20T16:56:33.778Z,19.40
2022-09-20T16:59:02.081Z,19.40
2022-09-20T17:01:29.951Z,19.30
2022-09-20T17:03:57.363Z,19.30
2022-09-20T17:06:24.907Z,19.20
2022-09-20T17:08:58.105Z,19.10
2022-09-20T17:11:28.669Z,19.00
2022-09-20T17:13:57.240Z,18.80
2022-09-20T17:16:29.908Z,18.80
2022-09-20T17:19:09.011Z,18.60
2022-09-20T17:21:38.749Z,18.50
2022-09-20T17:24:07.186Z,18.30
2022-09-20T17:26:40.393Z,18.30
2022-09-20T17:29:10.765Z,18.20
2022-09-20T17:31:39.566Z,18.10
2022-09-20T17:34:09.560Z,18.10
2022-09-20T17:36:42.111Z,18.00
2022-09-20T17:39:12.103Z,18.00
2022-09-20T17:41:40.777Z,17.90
2022-09-20T17:44:09.965Z,17.80
2022-09-20T17:46:39.363Z,17.70
2022-09-20T17:49:10.957Z,17.70
2022-09-20T17:51:40.942Z,17.70
2022-09-20T17:54:08.473Z,17.60
2022-09-20T17:56:35.808Z,17.30
2022-09-20T17:59:04.593Z,17.40
2022-09-20T18:01:33.502Z,17.30
2022-09-20T18:04:02.117Z,17.20
2022-09-20T18:06:50.285Z,17.10
2022-09-20T18:09:19.630Z,17.00
2022-09-20T18:11:52.770Z,17.00
2022-09-20T18:14:25.673Z,16.90
2022-09-20T18:16:53.953Z,16.80
2022-09-20T18:19:22.836Z,16.70
2022-09-20T18:21:50.222Z,16.80
2022-09-20T18:24:17.326Z,16.60
2022-09-20T18:26:44.703Z,16.70
2022-09-20T18:29:14.450Z,16.50
2022-09-20T18:31:50.048Z,16.50
2022-09-20T18:34:19.779Z,16.50
2022-09-20T18:36:52.993Z,16.50
2022-09-20T18:39:28.660Z,16.30
2022-09-20T18:41:55.989Z,16.40
2022-09-20T18:44:23.563Z,16.30
2022-09-20T18:46:55.264Z,16.10
2022-09-20T18:49:22.899Z,16.00
2022-09-20T18:51:50.427Z,15.90
2022-09-20T18:54:18.085Z,16.00
2022-09-20T18:56:47.862Z,15.90
2022-09-20T18:59:21.844Z,15.90
2022-09-20T19:02:09.986Z,15.90
2022-09-20T19:04:52.106Z,15.90
2022-09-20T19:07:27.946Z,15.70
2022-09-20T19:10:03.344Z,15.80
2022-09-20T19:12:30.426Z,15.80
2022-09-20T19:15:03.690Z,15.70
2022-09-20T19:18:02.734Z,15.70
2022-09-20T19:21:14.480Z,15.70
2022-09-20T19:24:12.372Z,15.60
2022-09-20T19:26:40.755Z,15.60
2022-09-20T19:29:25.193Z,15.70
2022-09-20T19:31:55.558Z,15.70
2022-09-20T19:34:25.399Z,15.70
2022-09-20T19:37:23.419Z,15.70
2022-09-20T19:40:11.417Z,15.70
2022-09-20T19:42:47.781Z,15.60
2022-09-20T19:45:42.221Z,15.60
2022-09-20T19:48:14.987Z,15.60
2022-09-20T19:50:46.573Z,15.60
2022-09-20T19:53:19.494Z,15.50
2022-09-20T19:55:55.431Z,15.50
2022-09-20T19:58:23.659Z,15.50
2022-09-20T20:00:50.996Z,15.50
2022-09-20T20:03:19.058Z,15.30
2022-09-20T20:05:53.020Z,15.20
2022-09-20T20:08:38.877Z,15.20
2022-09-20T20:11:05.851Z,15.20
2022-09-20T20:14:12.198Z,15.10
2022-09-20T20:16:44.996Z,15.10
2022-09-20T20:19:40.235Z,15.10
2022-09-20T20:22:32.455Z,15.20
2022-09-20T20:24:59.491Z,15.10
2022-09-20T20:27:31.397Z,15.10
2022-09-20T20:29:58.800Z,15.20
2022-09-20T20:32:25.898Z,15.30
2022-09-20T20:34:52.875Z,15.40
2022-09-20T20:37:19.808Z,15.50
2022-09-20T20:39:46.703Z,15.60
2022-09-20T20:42:14.043Z,15.60
2022-09-20T20:44:42.172Z,15.60
2022-09-20T20:47:09.184Z,15.20
2022-09-20T20:49:36.547Z,14.90
2022-09-20T20:52:05.217Z,14.70
2022-09-20T20:54:32.775Z,14.50
2022-09-20T20:56:59.670Z,14.40
2022-09-20T20:59:26.970Z,14.40
2022-09-20T21:01:53.879Z,14.40
2022-09-20T21:04:21.658Z,14.30
2022-09-20T21:06:50.851Z,14.30
2022-09-20T21:09:17.573Z,14.30
2022-09-20T21:11:44.894Z,14.20
2022-09-20T21:14:12.964Z,14.20
2022-09-20T21:16:43.034Z,14.40
2022-09-20T21:19:13.612Z,14.40
2022-09-20T21:21:43.186Z,14.20
2022-09-20T21:24:13.285Z,14.00
2022-09-20T21:26:40.863Z,13.90
2022-09-20T21:29:11.097Z,14.00
2022-09-20T21:31:43.655Z,14.10
2022-09-20T21:34:12.260Z,14.00
2022-09-20T21:36:41.544Z,14.00
2022-09-20T21:39:08.961Z,14.10
2022-09-20T21:41:38.268Z,14.00
2022-09-20T21:44:06.519Z,13.90
2022-09-20T21:46:36.529Z,13.80
2022-09-20T21:49:05.691Z,14.10
2022-09-20T21:51:33.639Z,14.30
2022-09-20T21:54:01.819Z,14.50
2022-09-20T21:56:37.003Z,14.60
2022-09-20T21:59:07.151Z,14.60
2022-09-20T22:01:37.042Z,14.60
2022-09-20T22:04:12.367Z,14.20
2022-09-20T22:06:43.720Z,14.00
2022-09-20T22:09:13.150Z,13.90
2022-09-20T22:11:43.584Z,13.90
2022-09-20T22:14:12.217Z,13.70
2022-09-20T22:16:44.162Z,13.60
2022-09-20T22:19:13.037Z,13.40
2022-09-20T22:21:42.493Z,13.40
2022-09-20T22:24:11.079Z,13.40
2022-09-20T22:26:50.823Z,13.30
2022-09-20T22:29:18.657Z,13.30
2022-09-20T22:31:47.313Z,13.30
2022-09-20T22:34:16.947Z,13.30
2022-09-20T22:36:44.624Z,13.20
2022-09-20T22:39:12.581Z,13.10
2022-09-20T22:41:41.387Z,13.00
2022-09-20T22:44:09.504Z,13.10
2022-09-20T22:46:37.274Z,13.10
2022-09-20T22:49:09.484Z,13.00
2022-09-20T22:51:37.449Z,13.00
2022-09-20T22:54:07.279Z,12.90
2022-09-20T22:56:34.722Z,13.10
2022-09-20T22:59:15.020Z,13.50
2022-09-20T23:01:44.768Z,13.50
2022-09-20T23:04:17.494Z,13.30
2022-09-20T23:06:51.937Z,13.10
2022-09-20T23:09:19.073Z,12.90
2022-09-20T23:11:46.781Z,12.90
2022-09-20T23:14:19.194Z,12.90
2022-09-20T23:16:46.796Z,12.90
2022-09-20T23:19:15.086Z,12.80
2022-09-20T23:21:43.466Z,12.90
2022-09-20T23:24:12.544Z,12.80
2022-09-20T23:26:40.629Z,12.70
2022-09-20T23:29:09.012Z,12.60
2022-09-20T23:31:37.726Z,12.70
2022-09-20T23:34:07.070Z,12.60
2022-09-20T23:36:38.087Z,12.50
2022-09-20T23:39:07.119Z,12.50
2022-09-20T23:41:36.664Z,12.60
2022-09-20T23:44:06.825Z,12.60
2022-09-20T23:46:34.545Z,12.60
2022-09-20T23:49:01.992Z,12.70
2022-09-20T23:51:30.707Z,12.60
2022-09-20T23:53:57.698Z,12.50
2022-09-20T23:56:25.267Z,12.40
2022-09-20T23:58:52.398Z,12.50
